sensor_id;sensor_type;location;lat;lon;timestamp;temperature;humidity
2855;DHT22;1435;49.472;10.940;2023-12-20T00:04:17;7.40;99.90
2855;DHT22;1435;49.472;10.940;2023-12-20T00:09:20;7.40;99.90
2855;DHT22;1435;49.472;10.940;2023-12-20T00:14:21;7.40;99.90
2855;DHT22;1435;49.472;10.940;2023-12-20T00:19:23;7.40;99.90
2855;DHT22;1435;49.472;10.940;2023-12-20T00:24:26;7.40;99.90
2855;DHT22;1435;49.472;10.940;2023-12-20T00:29:28;7.40;99.90
2855;DHT22;1435;49.472;10.940;2023-12-20T00:34:29;7.50;99.90
2855;DHT22;1435;49.472;10.940;2023-12-20T00:39:32;7.40;99.90
2855;DHT22;1435;49.472;10.940;2023-12-20T00:44:34;7.40;99.90
2855;DHT22;1435;49.472;10.940;2023-12-20T00:49:36;7.40;99.90
2855;DHT22;1435;49.472;10.940;2023-12-20T00:54:39;7.40;99.90
2855;DHT22;1435;49.472;10.940;2023-12-20T00:59:40;7.40;99.90
2855;DHT22;1435;49.472;10.940;2023-12-20T01:04:42;7.40;99.90
2855;DHT22;1435;49.472;10.940;2023-12-20T01:09:45;7.30;99.90
2855;DHT22;1435;49.472;10.940;2023-12-20T01:14:47;7.30;99.90
2855;DHT22;1435;49.472;10.940;2023-12-20T01:19:48;7.30;99.90
2855;DHT22;1435;49.472;10.940;2023-12-20T01:24:51;7.20;99.90
2855;DHT22;1435;49.472;10.940;2023-12-20T01:29:53;7.10;99.90
2855;DHT22;1435;49.472;10.940;2023-12-20T01:34:54;7.10;99.90
2855;DHT22;1435;49.472;10.940;2023-12-20T01:39:57;7.10;99.90
2855;DHT22;1435;49.472;10.940;2023-12-20T01:45:00;7.10;99.90
2855;DHT22;1435;49.472;10.940;2023-12-20T01:50:01;7.10;99.90
2855;DHT22;1435;49.472;10.940;2023-12-20T01:55:06;7.20;99.90
2855;DHT22;1435;49.472;10.940;2023-12-20T02:00:14;7.10;99.90
2855;DHT22;1435;49.472;10.940;2023-12-20T02:05:16;7.10;99.90
2855;DHT22;1435;49.472;10.940;2023-12-20T02:10:24;7.20;99.90
2855;DHT22;1435;49.472;10.940;2023-12-20T02:15:26;7.10;99.90
2855;DHT22;1435;49.472;10.940;2023-12-20T02:20:28;7.10;99.90
2855;DHT22;1435;49.472;10.940;2023-12-20T02:25:31;6.90;99.90
2855;DHT22;1435;49.472;10.940;2023-12-20T02:30:32;6.90;99.90
2855;DHT22;1435;49.472;10.940;2023-12-20T02:35:34;6.90;99.90
2855;DHT22;1435;49.472;10.940;2023-12-20T02:40:37;6.80;99.90
2855;DHT22;1435;49.472;10.940;2023-12-20T02:45:39;6.70;99.90
2855;DHT22;1435;49.472;10.940;2023-12-20T02:50:41;6.70;99.90
2855;DHT22;1435;49.472;10.940;2023-12-20T02:55:44;6.70;99.90
2855;DHT22;1435;49.472;10.940;2023-12-20T03:00:45;6.60;99.90
2855;DHT22;1435;49.472;10.940;2023-12-20T03:05:47;6.70;99.90
2855;DHT22;1435;49.472;10.940;2023-12-20T03:10:50;6.70;99.90
2855;DHT22;1435;49.472;10.940;2023-12-20T03:15:52;6.70;99.90
2855;DHT22;1435;49.472;10.940;2023-12-20T03:20:53;6.60;99.90
2855;DHT22;1435;49.472;10.940;2023-12-20T03:25:56;6.60;99.90
2855;DHT22;1435;49.472;10.940;2023-12-20T03:30:58;6.70;99.90
2855;DHT22;1435;49.472;10.940;2023-12-20T03:35:59;6.60;99.90
2855;DHT22;1435;49.472;10.940;2023-12-20T03:41:03;6.50;99.90
2855;DHT22;1435;49.472;10.940;2023-12-20T03:46:04;6.60;99.90
2855;DHT22;1435;49.472;10.940;2023-12-20T03:51:06;6.50;99.90
2855;DHT22;1435;49.472;10.940;2023-12-20T03:56:10;6.60;99.90
2855;DHT22;1435;49.472;10.940;2023-12-20T04:01:12;6.50;99.90
2855;DHT22;1435;49.472;10.940;2023-12-20T04:06:16;6.40;99.90
2855;DHT22;1435;49.472;10.940;2023-12-20T04:11:19;6.40;99.90
2855;DHT22;1435;49.472;10.940;2023-12-20T04:16:21;6.40;99.90
2855;DHT22;1435;49.472;10.940;2023-12-20T04:21:23;6.40;99.90
2855;DHT22;1435;49.472;10.940;2023-12-20T04:26:26;6.40;99.90
2855;DHT22;1435;49.472;10.940;2023-12-20T04:31:27;6.30;99.90
2855;DHT22;1435;49.472;10.940;2023-12-20T04:36:29;6.30;99.90
2855;DHT22;1435;49.472;10.940;2023-12-20T04:41:32;6.30;99.90
2855;DHT22;1435;49.472;10.940;2023-12-20T04:46:34;6.40;99.90
2855;DHT22;1435;49.472;10.940;2023-12-20T04:51:36;6.30;99.90
2855;DHT22;1435;49.472;10.940;2023-12-20T04:56:39;6.40;99.90
2855;DHT22;1435;49.472;10.940;2023-12-20T05:01:41;6.40;99.90
2855;DHT22;1435;49.472;10.940;2023-12-20T05:06:43;6.40;99.90
2855;DHT22;1435;49.472;10.940;2023-12-20T05:11:46;6.40;99.90
2855;DHT22;1435;49.472;10.940;2023-12-20T05:16:47;6.40;99.90
2855;DHT22;1435;49.472;10.940;2023-12-20T05:21:49;6.40;99.90
2855;DHT22;1435;49.472;10.940;2023-12-20T05:26:52;6.50;99.90
2855;DHT22;1435;49.472;10.940;2023-12-20T05:31:54;6.40;99.90
2855;DHT22;1435;49.472;10.940;2023-12-20T05:36:55;6.40;99.90
2855;DHT22;1435;49.472;10.940;2023-12-20T05:41:59;6.40;99.90
2855;DHT22;1435;49.472;10.940;2023-12-20T05:47:00;6.40;99.90
2855;DHT22;1435;49.472;10.940;2023-12-20T05:52:02;6.40;99.90
2855;DHT22;1435;49.472;10.940;2023-12-20T05:57:05;6.40;99.90
2855;DHT22;1435;49.472;10.940;2023-12-20T06:02:07;6.30;99.90
2855;DHT22;1435;49.472;10.940;2023-12-20T06:07:11;6.40;99.90
2855;DHT22;1435;49.472;10.940;2023-12-20T06:12:14;6.40;99.90
2855;DHT22;1435;49.472;10.940;2023-12-20T06:17:16;6.40;99.90
2855;DHT22;1435;49.472;10.940;2023-12-20T06:22:18;6.50;99.90
2855;DHT22;1435;49.472;10.940;2023-12-20T06:27:21;6.50;99.90
2855;DHT22;1435;49.472;10.940;2023-12-20T06:32:22;6.50;99.90
2855;DHT22;1435;49.472;10.940;2023-12-20T06:37:24;6.50;99.90
2855;DHT22;1435;49.472;10.940;2023-12-20T06:42:27;6.50;99.90
2855;DHT22;1435;49.472;10.940;2023-12-20T06:47:29;6.60;99.90
2855;DHT22;1435;49.472;10.940;2023-12-20T06:52:31;6.60;99.90
2855;DHT22;1435;49.472;10.940;2023-12-20T06:57:34;6.60;99.90
2855;DHT22;1435;49.472;10.940;2023-12-20T07:02:36;6.50;99.90
2855;DHT22;1435;49.472;10.940;2023-12-20T07:07:38;6.50;99.90
2855;DHT22;1435;49.472;10.940;2023-12-20T07:12:41;6.50;99.90
2855;DHT22;1435;49.472;10.940;2023-12-20T07:17:42;6.50;99.90
2855;DHT22;1435;49.472;10.940;2023-12-20T07:22:44;6.50;99.90
2855;DHT22;1435;49.472;10.940;2023-12-20T07:27:47;6.60;99.90
2855;DHT22;1435;49.472;10.940;2023-12-20T07:32:49;6.60;99.90
2855;DHT22;1435;49.472;10.940;2023-12-20T07:37:50;6.60;99.90
2855;DHT22;1435;49.472;10.940;2023-12-20T07:42:53;6.50;99.90
2855;DHT22;1435;49.472;10.940;2023-12-20T07:47:55;6.60;99.90
2855;DHT22;1435;49.472;10.940;2023-12-20T07:52:57;6.60;99.90
2855;DHT22;1435;49.472;10.940;2023-12-20T07:58:01;6.50;99.90
2855;DHT22;1435;49.472;10.940;2023-12-20T08:03:03;6.60;99.90
2855;DHT22;1435;49.472;10.940;2023-12-20T08:08:06;6.60;99.90
2855;DHT22;1435;49.472;10.940;2023-12-20T08:13:09;6.70;99.90
2855;DHT22;1435;49.472;10.940;2023-12-20T08:18:10;6.60;99.90
2855;DHT22;1435;49.472;10.940;2023-12-20T08:23:13;6.60;99.90
2855;DHT22;1435;49.472;10.940;2023-12-20T08:28:16;6.60;99.90
2855;DHT22;1435;49.472;10.940;2023-12-20T08:33:17;6.60;99.90
2855;DHT22;1435;49.472;10.940;2023-12-20T08:38:19;6.50;99.90
2855;DHT22;1435;49.472;10.940;2023-12-20T08:43:22;6.60;99.90
2855;DHT22;1435;49.472;10.940;2023-12-20T08:48:24;6.60;99.90
2855;DHT22;1435;49.472;10.940;2023-12-20T08:53:25;6.50;99.90
2855;DHT22;1435;49.472;10.940;2023-12-20T08:58:28;6.60;99.90
2855;DHT22;1435;49.472;10.940;2023-12-20T09:03:30;6.60;99.90
2855;DHT22;1435;49.472;10.940;2023-12-20T09:08:32;6.70;99.90
2855;DHT22;1435;49.472;10.940;2023-12-20T09:13:35;6.60;99.90
2855;DHT22;1435;49.472;10.940;2023-12-20T09:18:37;6.60;99.90
2855;DHT22;1435;49.472;10.940;2023-12-20T09:23:39;6.60;99.90
2855;DHT22;1435;49.472;10.940;2023-12-20T09:28:42;6.70;99.90
2855;DHT22;1435;49.472;10.940;2023-12-20T09:33:43;6.60;99.90
2855;DHT22;1435;49.472;10.940;2023-12-20T09:38:45;6.70;99.90
2855;DHT22;1435;49.472;10.940;2023-12-20T09:43:48;6.60;99.90
2855;DHT22;1435;49.472;10.940;2023-12-20T09:48:51;6.60;99.90
2855;DHT22;1435;49.472;10.940;2023-12-20T09:53:54;6.70;99.90
2855;DHT22;1435;49.472;10.940;2023-12-20T09:58:59;6.60;99.90
2855;DHT22;1435;49.472;10.940;2023-12-20T10:04:05;6.70;99.90
2855;DHT22;1435;49.472;10.940;2023-12-20T10:09:10;6.70;99.90
2855;DHT22;1435;49.472;10.940;2023-12-20T10:14:13;6.70;99.90
2855;DHT22;1435;49.472;10.940;2023-12-20T10:19:16;6.80;99.90
2855;DHT22;1435;49.472;10.940;2023-12-20T10:24:18;6.90;99.90
2855;DHT22;1435;49.472;10.940;2023-12-20T10:29:21;6.90;99.90
2855;DHT22;1435;49.472;10.940;2023-12-20T10:34:25;6.90;99.90
2855;DHT22;1435;49.472;10.940;2023-12-20T10:39:27;6.90;99.90
2855;DHT22;1435;49.472;10.940;2023-12-20T10:44:30;6.90;99.90
2855;DHT22;1435;49.472;10.940;2023-12-20T10:49:31;6.90;99.90
2855;DHT22;1435;49.472;10.940;2023-12-20T10:54:35;6.90;99.90
2855;DHT22;1435;49.472;10.940;2023-12-20T10:59:39;6.90;99.90
2855;DHT22;1435;49.472;10.940;2023-12-20T11:04:47;6.90;99.90
2855;DHT22;1435;49.472;10.940;2023-12-20T11:09:57;7.00;99.90
2855;DHT22;1435;49.472;10.940;2023-12-20T11:15:03;6.90;99.90
2855;DHT22;1435;49.472;10.940;2023-12-20T11:20:07;6.90;99.90
2855;DHT22;1435;49.472;10.940;2023-12-20T11:25:11;6.90;99.90
2855;DHT22;1435;49.472;10.940;2023-12-20T11:30:14;6.90;99.90
2855;DHT22;1435;49.472;10.940;2023-12-20T11:35:18;6.80;99.90
2855;DHT22;1435;49.472;10.940;2023-12-20T11:40:20;6.90;99.90
2855;DHT22;1435;49.472;10.940;2023-12-20T11:45:27;7.00;99.90
2855;DHT22;1435;49.472;10.940;2023-12-20T11:50:29;7.00;99.90
2855;DHT22;1435;49.472;10.940;2023-12-20T11:55:31;7.00;99.90
2855;DHT22;1435;49.472;10.940;2023-12-20T12:00:38;6.90;99.90
2855;DHT22;1435;49.472;10.940;2023-12-20T12:05:39;6.90;99.90
2855;DHT22;1435;49.472;10.940;2023-12-20T12:10:41;6.80;99.90
2855;DHT22;1435;49.472;10.940;2023-12-20T12:15:44;6.80;99.90
2855;DHT22;1435;49.472;10.940;2023-12-20T12:20:47;6.80;99.90
2855;DHT22;1435;49.472;10.940;2023-12-20T12:25:49;6.90;99.90
2855;DHT22;1435;49.472;10.940;2023-12-20T12:30:57;6.90;99.90
2855;DHT22;1435;49.472;10.940;2023-12-20T12:36:00;6.90;99.90
2855;DHT22;1435;49.472;10.940;2023-12-20T12:41:02;6.90;99.90
2855;DHT22;1435;49.472;10.940;2023-12-20T12:46:05;6.90;99.90
2855;DHT22;1435;49.472;10.940;2023-12-20T12:51:06;6.90;99.90
2855;DHT22;1435;49.472;10.940;2023-12-20T12:56:13;6.90;99.90
2855;DHT22;1435;49.472;10.940;2023-12-20T13:01:16;7.00;99.90
2855;DHT22;1435;49.472;10.940;2023-12-20T13:06:18;7.00;99.90
2855;DHT22;1435;49.472;10.940;2023-12-20T13:11:20;6.90;99.90
2855;DHT22;1435;49.472;10.940;2023-12-20T13:16:23;6.90;99.90
2855;DHT22;1435;49.472;10.940;2023-12-20T13:21:25;6.90;99.90
2855;DHT22;1435;49.472;10.940;2023-12-20T13:26:27;6.90;99.90
2855;DHT22;1435;49.472;10.940;2023-12-20T13:31:30;6.90;99.90
2855;DHT22;1435;49.472;10.940;2023-12-20T13:36:32;7.00;99.90
2855;DHT22;1435;49.472;10.940;2023-12-20T13:41:34;7.00;99.90
2855;DHT22;1435;49.472;10.940;2023-12-20T13:46:37;7.00;99.90
2855;DHT22;1435;49.472;10.940;2023-12-20T13:51:40;7.00;99.90
2855;DHT22;1435;49.472;10.940;2023-12-20T13:56:42;7.00;99.90
2855;DHT22;1435;49.472;10.940;2023-12-20T14:01:46;7.00;99.90
2855;DHT22;1435;49.472;10.940;2023-12-20T14:06:48;6.90;99.90
2855;DHT22;1435;49.472;10.940;2023-12-20T14:11:50;6.90;99.90
2855;DHT22;1435;49.472;10.940;2023-12-20T14:16:53;7.00;99.90
2855;DHT22;1435;49.472;10.940;2023-12-20T14:21:55;7.00;99.90
2855;DHT22;1435;49.472;10.940;2023-12-20T14:26:56;7.00;99.90
2855;DHT22;1435;49.472;10.940;2023-12-20T14:32:00;6.90;99.90
2855;DHT22;1435;49.472;10.940;2023-12-20T14:37:03;6.90;99.90
2855;DHT22;1435;49.472;10.940;2023-12-20T14:42:06;6.80;99.90
2855;DHT22;1435;49.472;10.940;2023-12-20T14:47:14;6.80;99.90
2855;DHT22;1435;49.472;10.940;2023-12-20T14:52:17;6.70;99.90
2855;DHT22;1435;49.472;10.940;2023-12-20T14:57:19;6.70;99.90
2855;DHT22;1435;49.472;10.940;2023-12-20T15:02:22;6.70;99.90
2855;DHT22;1435;49.472;10.940;2023-12-20T15:07:24;6.70;99.90
2855;DHT22;1435;49.472;10.940;2023-12-20T15:12:26;6.70;99.90
2855;DHT22;1435;49.472;10.940;2023-12-20T15:17:29;6.60;99.90
2855;DHT22;1435;49.472;10.940;2023-12-20T15:22:30;6.70;99.90
2855;DHT22;1435;49.472;10.940;2023-12-20T15:27:34;6.60;99.90
2855;DHT22;1435;49.472;10.940;2023-12-20T15:32:39;6.60;99.90
2855;DHT22;1435;49.472;10.940;2023-12-20T15:37:41;6.60;99.90
2855;DHT22;1435;49.472;10.940;2023-12-20T15:42:43;6.60;99.90
2855;DHT22;1435;49.472;10.940;2023-12-20T15:47:46;6.60;99.90
2855;DHT22;1435;49.472;10.940;2023-12-20T15:52:48;6.50;99.90
2855;DHT22;1435;49.472;10.940;2023-12-20T15:57:49;6.60;99.90
2855;DHT22;1435;49.472;10.940;2023-12-20T16:02:52;6.60;99.90
2855;DHT22;1435;49.472;10.940;2023-12-20T16:07:54;6.60;99.90
2855;DHT22;1435;49.472;10.940;2023-12-20T16:12:55;6.60;99.90
2855;DHT22;1435;49.472;10.940;2023-12-20T16:17:58;6.60;99.90
2855;DHT22;1435;49.472;10.940;2023-12-20T16:23:00;6.60;99.90
2855;DHT22;1435;49.472;10.940;2023-12-20T16:28:02;6.50;99.90
2855;DHT22;1435;49.472;10.940;2023-12-20T16:33:05;6.60;99.90
2855;DHT22;1435;49.472;10.940;2023-12-20T16:38:07;6.50;99.90
2855;DHT22;1435;49.472;10.940;2023-12-20T16:43:08;6.40;99.90
2855;DHT22;1435;49.472;10.940;2023-12-20T16:48:12;6.40;99.90
2855;DHT22;1435;49.472;10.940;2023-12-20T16:53:14;6.40;99.90
2855;DHT22;1435;49.472;10.940;2023-12-20T16:58:16;6.40;99.90
2855;DHT22;1435;49.472;10.940;2023-12-20T17:03:20;6.30;99.90
2855;DHT22;1435;49.472;10.940;2023-12-20T17:08:24;6.30;99.90
2855;DHT22;1435;49.472;10.940;2023-12-20T17:13:26;6.30;99.90
2855;DHT22;1435;49.472;10.940;2023-12-20T17:18:29;6.30;99.90
2855;DHT22;1435;49.472;10.940;2023-12-20T17:23:31;6.30;99.90
2855;DHT22;1435;49.472;10.940;2023-12-20T17:28:33;6.30;99.90
2855;DHT22;1435;49.472;10.940;2023-12-20T17:33:36;6.30;99.90
2855;DHT22;1435;49.472;10.940;2023-12-20T17:38:38;6.40;99.90
2855;DHT22;1435;49.472;10.940;2023-12-20T17:43:40;6.40;99.90
2855;DHT22;1435;49.472;10.940;2023-12-20T17:48:44;6.40;99.90
2855;DHT22;1435;49.472;10.940;2023-12-20T17:53:45;6.30;99.90
2855;DHT22;1435;49.472;10.940;2023-12-20T17:58:47;6.30;99.90
2855;DHT22;1435;49.472;10.940;2023-12-20T18:03:50;6.30;99.90
2855;DHT22;1435;49.472;10.940;2023-12-20T18:08:52;6.30;99.90
2855;DHT22;1435;49.472;10.940;2023-12-20T18:13:54;6.40;99.90
2855;DHT22;1435;49.472;10.940;2023-12-20T18:18:57;6.40;99.90
2855;DHT22;1435;49.472;10.940;2023-12-20T18:23:59;6.50;99.90
2855;DHT22;1435;49.472;10.940;2023-12-20T18:29:02;6.40;99.90
2855;DHT22;1435;49.472;10.940;2023-12-20T18:34:05;6.50;99.90
2855;DHT22;1435;49.472;10.940;2023-12-20T18:39:07;6.40;99.90
2855;DHT22;1435;49.472;10.940;2023-12-20T18:44:09;6.40;99.90
2855;DHT22;1435;49.472;10.940;2023-12-20T18:49:12;6.50;99.90
2855;DHT22;1435;49.472;10.940;2023-12-20T18:54:13;6.50;99.90
2855;DHT22;1435;49.472;10.940;2023-12-20T18:59:15;6.50;99.90
2855;DHT22;1435;49.472;10.940;2023-12-20T19:04:21;6.50;99.90
2855;DHT22;1435;49.472;10.940;2023-12-20T19:09:23;6.50;99.90
2855;DHT22;1435;49.472;10.940;2023-12-20T19:14:24;6.50;99.90
2855;DHT22;1435;49.472;10.940;2023-12-20T19:19:27;6.50;99.90
2855;DHT22;1435;49.472;10.940;2023-12-20T19:24:29;6.60;99.90
2855;DHT22;1435;49.472;10.940;2023-12-20T19:29:31;6.40;99.90
2855;DHT22;1435;49.472;10.940;2023-12-20T19:34:34;6.40;99.90
2855;DHT22;1435;49.472;10.940;2023-12-20T19:39:35;6.50;99.90
2855;DHT22;1435;49.472;10.940;2023-12-20T19:44:37;6.40;99.90
2855;DHT22;1435;49.472;10.940;2023-12-20T19:49:40;6.40;99.90
2855;DHT22;1435;49.472;10.940;2023-12-20T19:54:42;6.40;99.90
2855;DHT22;1435;49.472;10.940;2023-12-20T19:59:44;6.30;99.90
2855;DHT22;1435;49.472;10.940;2023-12-20T20:04:47;6.30;99.90
2855;DHT22;1435;49.472;10.940;2023-12-20T20:09:49;6.20;99.90
2855;DHT22;1435;49.472;10.940;2023-12-20T20:14:50;6.20;99.90
2855;DHT22;1435;49.472;10.940;2023-12-20T20:19:53;6.20;99.90
2855;DHT22;1435;49.472;10.940;2023-12-20T20:24:55;6.20;99.90
2855;DHT22;1435;49.472;10.940;2023-12-20T20:29:57;6.20;99.90
2855;DHT22;1435;49.472;10.940;2023-12-20T20:35:00;6.30;99.90
2855;DHT22;1435;49.472;10.940;2023-12-20T20:40:01;6.20;99.90
2855;DHT22;1435;49.472;10.940;2023-12-20T20:45:04;6.20;99.90
2855;DHT22;1435;49.472;10.940;2023-12-20T20:50:08;6.20;99.90
2855;DHT22;1435;49.472;10.940;2023-12-20T20:55:09;6.30;99.90
2855;DHT22;1435;49.472;10.940;2023-12-20T21:00:12;6.20;99.90
2855;DHT22;1435;49.472;10.940;2023-12-20T21:05:16;6.20;99.90
2855;DHT22;1435;49.472;10.940;2023-12-20T21:10:18;6.20;99.90
2855;DHT22;1435;49.472;10.940;2023-12-20T21:15:21;6.10;99.90
2855;DHT22;1435;49.472;10.940;2023-12-20T21:20:24;6.10;99.90
2855;DHT22;1435;49.472;10.940;2023-12-20T21:25:25;6.10;99.90
2855;DHT22;1435;49.472;10.940;2023-12-20T21:30:27;6.10;99.90
2855;DHT22;1435;49.472;10.940;2023-12-20T21:35:35;6.20;99.90
2855;DHT22;1435;49.472;10.940;2023-12-20T21:40:36;6.20;99.90
2855;DHT22;1435;49.472;10.940;2023-12-20T21:45:38;6.10;99.90
2855;DHT22;1435;49.472;10.940;2023-12-20T21:50:41;6.00;99.90
2855;DHT22;1435;49.472;10.940;2023-12-20T21:55:43;6.10;99.90
2855;DHT22;1435;49.472;10.940;2023-12-20T22:00:45;6.10;99.90
2855;DHT22;1435;49.472;10.940;2023-12-20T22:05:48;6.10;99.90
2855;DHT22;1435;49.472;10.940;2023-12-20T22:10:50;6.00;99.90
2855;DHT22;1435;49.472;10.940;2023-12-20T22:15:52;6.10;99.90
2855;DHT22;1435;49.472;10.940;2023-12-20T22:20:56;6.10;99.90
2855;DHT22;1435;49.472;10.940;2023-12-20T22:25:59;6.20;99.90
2855;DHT22;1435;49.472;10.940;2023-12-20T22:31:00;6.10;99.90
2855;DHT22;1435;49.472;10.940;2023-12-20T22:36:04;6.10;99.90
2855;DHT22;1435;49.472;10.940;2023-12-20T22:41:07;6.10;99.90
2855;DHT22;1435;49.472;10.940;2023-12-20T22:46:09;6.20;99.90
2855;DHT22;1435;49.472;10.940;2023-12-20T22:51:12;6.20;99.90
2855;DHT22;1435;49.472;10.940;2023-12-20T22:56:14;6.20;99.90
2855;DHT22;1435;49.472;10.940;2023-12-20T23:01:16;6.20;99.90
2855;DHT22;1435;49.472;10.940;2023-12-20T23:06:20;6.20;99.90
2855;DHT22;1435;49.472;10.940;2023-12-20T23:11:22;6.20;99.90
2855;DHT22;1435;49.472;10.940;2023-12-20T23:16:24;6.20;99.90
2855;DHT22;1435;49.472;10.940;2023-12-20T23:21:27;6.30;99.90
2855;DHT22;1435;49.472;10.940;2023-12-20T23:26:28;6.30;99.90
2855;DHT22;1435;49.472;10.940;2023-12-20T23:31:30;6.20;99.90
2855;DHT22;1435;49.472;10.940;2023-12-20T23:36:33;6.20;99.90
2855;DHT22;1435;49.472;10.940;2023-12-20T23:41:35;6.30;99.90
2855;DHT22;1435;49.472;10.940;2023-12-20T23:46:36;6.30;99.90
2855;DHT22;1435;49.472;10.940;2023-12-20T23:51:39;6.30;99.90
2855;DHT22;1435;49.472;10.940;2023-12-20T23:56:41;6.30;99.90
